Hlavní strana
METAR-TAF:

METAR-TAF

Letiště :

Vamdrup

Kolding, Dánsko

zeměpisná šířka: 55-26N, zeměpisná délka: 009-20E, výška: 44 m

Aktuální stav počasí

Zpráva byla vytvořena před 25 minutami, v 00:50 UTC
Jihojihovýchodní vítr 5 kt
Teplota 16°C
Vlhkost vzduchu 77%
Tlak 1019 hPa

METAR: EKVD 220050Z AUTO 16005KT //// ///////// 16/12 Q1019

Čas: 03:15 (01:15 UTC)


TAF: chybějící

Stav a předpovědi počasí z více než 4 000 letišť (zprávy METAR a TAF).

Červené a žluté tečky na mapě představují dostupné meteorologické stanice.

Když kurzor umístíte na tečku, zobrazí se název stanice.

Pak kliknutím zobrazíte stav a předpověď počasí.

Chcete-li změnit mapu, kliknutím na zelené tlačítko se znaménkem +mapu přiblížíte, kliknutím na zelené tlačítko se znaménkem – mapu oddálíte a kliknutím na zelené šipky přejdete na sousední mapy.


METAR-TAF: